Time;durP1;ratioP1;P1;durP2;ratioP2;P2;SDS_P1;SDS_P2;PMS_P1;PMS_P2;Temp;Humidity;BMP_temperature;BMP_pressure;BME280_temperature;BME280_humidity;BME280_pressure;Samples;Min_cycle;Max_cycle;Signal;HPM_P1;HPM_P2
2022/06/08 00:00:13;;;;;;;10.70;3.67;;;14.90;99.90;;;;;;5017175;28;20053;-73
2022/06/08 00:02:44;;;;;;;10.98;3.65;;;14.90;99.90;;;;;;5018315;28;20356;-73
2022/06/08 00:05:12;;;;;;;10.60;3.40;;;14.90;99.90;;;;;;5018908;28;20049;-73
2022/06/08 00:07:40;;;;;;;15.02;3.65;;;14.90;99.90;;;;;;5017179;28;20049;-73
2022/06/08 00:10:08;;;;;;;8.02;3.08;;;14.80;99.90;;;;;;5018117;28;20375;-73
2022/06/08 00:12:36;;;;;;;9.65;2.97;;;14.80;99.90;;;;;;5017201;28;20046;-73
2022/06/08 00:15:07;;;;;;;13.07;3.40;;;14.70;99.90;;;;;;5018193;28;20371;-73
2022/06/08 00:17:35;;;;;;;9.10;3.38;;;16.10;99.90;;;;;;5018128;28;20046;-73
2022/06/08 00:20:05;;;;;;;10.02;3.30;;;14.60;99.90;;;;;;5017078;28;20050;-73
2022/06/08 00:22:33;;;;;;;9.15;2.80;;;14.60;99.90;;;;;;5018183;28;20364;-73
2022/06/08 00:25:00;;;;;;;8.02;2.70;;;14.50;99.90;;;;;;5018036;28;20046;-73
2022/06/08 00:27:28;;;;;;;9.05;2.25;;;14.50;99.90;;;;;;5016596;28;20058;-73
2022/06/08 00:29:56;;;;;;;11.50;2.13;;;14.50;99.90;;;;;;5018305;28;20057;-73
2022/06/08 00:32:23;;;;;;;7.32;2.20;;;14.50;99.90;;;;;;4999577;28;20364;-73
2022/06/08 00:34:51;;;;;;;4.03;2.03;;;14.50;99.90;;;;;;5017905;28;20057;-73
2022/06/08 00:37:19;;;;;;;9.27;2.50;;;14.40;99.90;;;;;;5000578;28;20068;-73
2022/06/08 00:39:47;;;;;;;7.82;2.20;;;14.40;99.90;;;;;;5016525;28;20042;-73
2022/06/08 00:42:16;;;;;;;5.53;2.25;;;14.40;99.90;;;;;;5018143;28;20042;-73
2022/06/08 00:44:58;;;;;;;8.13;2.28;;;14.40;99.90;;;;;;5017380;28;20045;-73
2022/06/08 00:47:30;;;;;;;10.10;2.70;;;14.50;99.90;;;;;;5016670;28;20376;-73
2022/06/08 00:50:03;;;;;;;8.05;2.67;;;14.50;99.90;;;;;;5017745;28;20042;-73
2022/06/08 00:52:34;;;;;;;9.80;2.58;;;14.50;99.90;;;;;;5016170;28;20379;-74
2022/06/08 00:55:06;;;;;;;5.93;2.08;;;14.50;99.90;;;;;;5000633;28;20042;-73
2022/06/08 00:57:41;;;;;;;9.50;2.22;;;14.50;99.90;;;;;;5017099;28;20054;-73
2022/06/08 01:00:09;;;;;;;8.35;2.22;;;14.50;99.90;;;;;;5018029;28;20478;-73
2022/06/08 01:02:37;;;;;;;6.68;2.05;;;14.50;99.90;;;;;;5037273;28;20041;-73
2022/06/08 01:05:31;;;;;;;6.85;1.98;;;14.50;99.90;;;;;;5052718;28;20052;-73
2022/06/08 01:08:11;;;;;;;10.05;1.90;;;14.50;99.90;;;;;;5034674;28;20048;-73
2022/06/08 01:10:45;;;;;;;8.52;1.90;;;14.50;99.90;;;;;;5052085;28;20049;-73
2022/06/08 01:13:15;;;;;;;10.88;1.92;;;14.40;99.90;;;;;;5051315;28;20116;-73
2022/06/08 01:15:43;;;;;;;6.47;1.80;;;14.40;99.90;;;;;;5035830;28;20050;-73
2022/06/08 01:18:16;;;;;;;9.38;2.30;;;14.40;99.90;;;;;;5052560;28;20041;-73
2022/06/08 01:20:55;;;;;;;6.93;2.20;;;14.40;99.90;;;;;;5034735;28;20038;-73
2022/06/08 01:23:31;;;;;;;7.20;2.00;;;14.40;99.90;;;;;;5035967;28;20053;-73
2022/06/08 01:26:19;;;;;;;8.15;2.13;;;14.40;99.90;;;;;;5034503;28;20243;-73
2022/06/08 01:28:59;;;;;;;7.50;1.90;;;14.40;99.90;;;;;;5019240;28;20045;-73
2022/06/08 01:31:51;;;;;;;5.22;1.83;;;14.40;99.90;;;;;;5035680;28;20104;-73
2022/06/08 01:34:28;;;;;;;8.10;1.98;;;14.40;99.90;;;;;;5035212;28;20049;-73
2022/06/08 01:37:30;;;;;;;7.57;2.17;;;14.40;99.90;;;;;;5036331;28;20379;-73
2022/06/08 01:40:33;;;;;;;7.00;1.90;;;14.30;99.90;;;;;;5019227;28;20391;-73
2022/06/08 01:43:49;;;;;;;7.57;2.25;;;14.30;99.90;;;;;;5034639;28;20399;-73
2022/06/08 01:46:26;;;;;;;7.95;1.90;;;14.30;99.90;;;;;;4983321;28;20061;-73
2022/06/08 01:49:27;;;;;;;5.13;2.00;;;14.30;99.90;;;;;;5036127;28;20050;-73
2022/06/08 01:52:41;;;;;;;8.82;2.03;;;14.30;99.90;;;;;;5035990;28;20046;-73
2022/06/08 01:55:23;;;;;;;7.57;1.88;;;14.20;99.90;;;;;;5036492;28;20064;-73
2022/06/08 01:58:03;;;;;;;5.57;1.88;;;14.20;99.90;;;;;;5051901;28;20045;-73
2022/06/08 02:00:35;;;;;;;6.30;2.00;;;14.20;99.90;;;;;;5050217;28;20376;-73
2022/06/08 02:03:07;;;;;;;7.45;2.10;;;14.20;99.90;;;;;;5035155;28;20044;-73
2022/06/08 02:05:45;;;;;;;7.55;2.05;;;14.20;99.90;;;;;;5035542;28;20042;-73
2022/06/08 02:08:24;;;;;;;4.72;1.80;;;14.20;99.90;;;;;;5035240;28;20056;-73
2022/06/08 02:11:00;;;;;;;5.35;1.67;;;14.20;99.90;;;;;;5035030;28;20375;-73
2022/06/08 02:13:36;;;;;;;;;;;14.20;99.90;;;;;;5034005;28;20061;-73
2022/06/08 02:16:17;;;;;;;4.32;2.00;;;14.20;99.90;;;;;;5051255;28;19921;-73
2022/06/08 02:18:58;;;;;;;6.90;1.80;;;14.20;99.90;;;;;;5002754;28;20387;-73
2022/06/08 02:21:30;;;;;;;4.78;1.63;;;14.20;99.90;;;;;;5051220;28;20053;-73
2022/06/08 02:24:13;;;;;;;9.82;1.80;;;14.20;99.90;;;;;;5051134;28;20061;-73
2022/06/08 02:26:46;;;;;;;5.45;1.70;;;14.20;99.90;;;;;;5033548;28;20045;-73
2022/06/08 02:29:19;;;;;;;5.20;1.63;;;14.20;99.90;;;;;;5050996;28;20406;-73
2022/06/08 02:32:01;;;;;;;3.65;1.55;;;14.20;99.90;;;;;;5034651;28;20049;-73
2022/06/08 02:34:35;;;;;;;3.17;1.30;;;14.30;99.90;;;;;;5033288;28;20052;-73
2022/06/08 02:37:24;;;;;;;3.17;1.50;;;14.20;99.90;;;;;;5035615;28;20049;-73
2022/06/08 02:40:02;;;;;;;4.20;1.77;;;14.30;99.90;;;;;;5033108;28;20048;-73
2022/06/08 02:42:43;;;;;;;2.65;1.65;;;14.30;99.90;;;;;;5034395;28;20045;-73
2022/06/08 02:45:17;;;;;;;4.57;1.77;;;14.30;99.90;;;;;;5050756;28;20479;-73
2022/06/08 02:47:50;;;;;;;4.72;1.90;;;14.30;99.90;;;;;;5033073;28;20048;-73
2022/06/08 02:50:21;;;;;;;3.75;1.90;;;14.30;99.90;;;;;;5034229;28;20056;-73
2022/06/08 02:52:52;;;;;;;3.05;1.85;;;14.30;99.90;;;;;;5033025;28;20479;-73
2022/06/08 02:55:58;;;;;;;3.20;1.70;;;14.30;99.90;;;;;;5034084;28;20041;-73
2022/06/08 02:58:33;;;;;;;4.38;1.80;;;14.30;99.90;;;;;;5033804;28;20049;-74
2022/06/08 03:01:16;;;;;;;4.57;1.35;;;14.30;99.90;;;;;;5049477;28;20060;-73
2022/06/08 03:03:50;;;;;;;2.47;1.50;;;14.30;99.90;;;;;;5017297;28;20489;-73
2022/06/08 03:06:26;;;;;;;3.72;1.60;;;14.30;99.90;;;;;;5049817;28;20046;-73
2022/06/08 03:09:00;;;;;;;2.97;1.60;;;14.40;99.90;;;;;;5033828;28;20045;-73
2022/06/08 03:11:38;;;;;;;3.55;1.60;;;14.40;99.90;;;;;;5050721;28;20049;-73
2022/06/08 03:14:10;;;;;;;3.53;1.50;;;14.40;99.90;;;;;;5033604;28;20041;-74
2022/06/08 03:16:56;;;;;;;1.90;1.30;;;14.40;99.90;;;;;;5034401;28;20045;-73
2022/06/08 03:19:27;;;;;;;2.05;1.15;;;14.40;99.90;;;;;;5032642;28;20467;-73
2022/06/08 03:21:55;;;;;;;2.65;1.25;;;14.50;99.90;;;;;;5033923;28;20049;-73
2022/06/08 03:24:27;;;;;;;3.17;0.80;;;14.50;99.90;;;;;;5033817;28;20041;-73
2022/06/08 03:26:59;;;;;;;2.92;0.70;;;14.50;99.90;;;;;;5032569;28;20038;-73
2022/06/08 03:29:28;;;;;;;1.50;0.75;;;14.50;99.90;;;;;;5050278;28;20471;-73
2022/06/08 03:31:57;;;;;;;1.58;0.70;;;14.50;99.90;;;;;;5018147;28;20371;-73
2022/06/08 03:34:25;;;;;;;2.30;0.80;;;14.60;99.90;;;;;;5036628;28;20050;-73
2022/06/08 03:36:54;;;;;;;1.10;0.60;;;14.60;99.90;;;;;;5038028;28;20062;-73
2022/06/08 03:39:24;;;;;;;1.75;0.68;;;14.60;99.90;;;;;;5036446;28;20129;-73
2022/06/08 03:41:51;;;;;;;;;;;14.60;99.90;;;;;;5038063;28;20045;-73
2022/06/08 03:44:19;;;;;;;1.70;0.60;;;14.60;99.90;;;;;;5038538;28;19921;-74
2022/06/08 03:46:54;;;;;;;1.33;0.50;;;14.60;99.90;;;;;;5037410;28;20052;-73
2022/06/08 03:49:24;;;;;;;2.15;0.50;;;14.70;99.90;;;;;;5038258;28;20054;-73
2022/06/08 03:51:56;;;;;;;1.10;0.50;;;14.70;99.90;;;;;;5038283;28;20071;-73
2022/06/08 03:54:30;;;;;;;1.55;0.68;;;14.70;99.90;;;;;;5036380;28;20042;-73
2022/06/08 03:57:03;;;;;;;2.35;0.70;;;14.70;99.90;;;;;;5054368;28;20045;-73
2022/06/08 03:59:32;;;;;;;1.63;0.90;;;14.70;99.90;;;;;;5036251;28;20428;-73
2022/06/08 04:02:03;;;;;;;1.65;0.70;;;14.80;99.90;;;;;;5037196;28;20053;-73
2022/06/08 04:04:31;;;;;;;3.60;0.90;;;14.70;99.90;;;;;;5037206;28;20041;-73
2022/06/08 04:06:59;;;;;;;2.42;1.00;;;14.80;99.90;;;;;;5036031;28;20048;-73
2022/06/08 04:09:27;;;;;;;2.72;0.90;;;14.80;99.90;;;;;;5037193;28;20476;-73
2022/06/08 04:11:56;;;;;;;2.53;1.00;;;14.90;99.90;;;;;;5037213;28;20041;-73
2022/06/08 04:14:25;;;;;;;4.53;1.00;;;14.90;99.90;;;;;;5036066;28;20056;-73
2022/06/08 04:16:53;;;;;;;;;;;14.90;99.90;;;;;;5038215;28;20053;-74
2022/06/08 04:19:22;;;;;;;3.05;1.08;;;15.00;99.90;;;;;;5036196;28;19921;-73
2022/06/08 04:21:50;;;;;;;3.03;1.33;;;15.00;99.90;;;;;;5037981;28;20069;-73
2022/06/08 04:24:20;;;;;;;2.95;1.33;;;14.90;99.90;;;;;;5037021;28;20046;-73
2022/06/08 04:26:53;;;;;;;3.03;1.42;;;15.00;99.90;;;;;;5052382;28;20037;-74
2022/06/08 04:29:28;;;;;;;2.30;1.50;;;15.00;99.90;;;;;;5037148;28;20466;-73
2022/06/08 04:31:57;;;;;;;2.45;1.30;;;15.00;99.90;;;;;;5053221;28;20475;-73
2022/06/08 04:34:28;;;;;;;2.53;1.52;;;15.00;99.90;;;;;;5035511;28;20041;-73
2022/06/08 04:36:55;;;;;;;3.92;1.50;;;15.00;99.90;;;;;;5036574;28;20041;-73
2022/06/08 04:39:33;;;;;;;5.60;1.90;;;15.10;99.90;;;;;;5018961;28;20056;-73
2022/06/08 04:42:02;;;;;;;3.42;1.70;;;15.10;99.90;;;;;;5036459;28;20475;-73
2022/06/08 04:44:36;;;;;;;4.85;1.70;;;15.10;99.90;;;;;;5052091;28;20052;-73
2022/06/08 04:47:08;;;;;;;5.05;1.90;;;15.10;99.90;;;;;;5035433;28;20053;-73
2022/06/08 04:49:38;;;;;;;3.45;1.65;;;15.20;99.90;;;;;;5036319;28;20095;-74
2022/06/08 04:52:08;;;;;;;4.35;2.08;;;15.20;99.90;;;;;;5020511;28;20068;-73
2022/06/08 04:54:35;;;;;;;5.93;2.60;;;15.20;99.90;;;;;;5036054;28;20050;-73
2022/06/08 04:57:11;;;;;;;3.88;1.83;;;15.20;99.90;;;;;;5036534;28;20056;-73
2022/06/08 04:59:40;;;;;;;5.13;2.10;;;15.20;99.90;;;;;;5034855;28;20065;-73
2022/06/08 05:02:42;;;;;;;4.47;2.10;;;15.20;99.90;;;;;;5036068;28;20048;-73
2022/06/08 05:05:13;;;;;;;5.93;2.20;;;15.20;99.90;;;;;;5036490;28;20046;-73
2022/06/08 05:07:41;;;;;;;5.07;2.40;;;15.30;99.90;;;;;;5035899;28;20045;-73
2022/06/08 05:10:09;;;;;;;;;;;15.20;99.90;;;;;;5036447;28;20486;-73
2022/06/08 05:12:40;;;;;;;5.13;2.53;;;15.30;99.90;;;;;;5034980;28;20088;-73
2022/06/08 05:15:13;;;;;;;5.60;2.67;;;15.30;99.90;;;;;;5036014;28;20037;-73
2022/06/08 05:17:41;;;;;;;5.15;3.03;;;15.30;99.90;;;;;;5036533;28;20064;-73
2022/06/08 05:20:12;;;;;;;4.90;3.20;;;15.40;99.90;;;;;;5034864;28;20047;-73
2022/06/08 05:22:41;;;;;;;6.30;3.80;;;15.40;99.90;;;;;;5036783;28;20059;-73
2022/06/08 05:25:11;;;;;;;7.07;3.60;;;15.40;99.90;;;;;;5036647;28;20049;-73
2022/06/08 05:27:39;;;;;;;6.20;4.03;;;15.50;99.90;;;;;;5034850;28;20046;-73
2022/06/08 05:30:11;;;;;;;6.88;4.38;;;15.50;99.90;;;;;;5035744;28;20041;-73
2022/06/08 05:32:41;;;;;;;6.03;3.90;;;15.50;99.90;;;;;;5034708;28;20312;-74
2022/06/08 05:35:10;;;;;;;6.00;4.18;;;15.50;99.90;;;;;;5036320;28;20048;-73
2022/06/08 05:37:38;;;;;;;6.22;4.50;;;15.50;99.90;;;;;;5035507;28;20164;-74
2022/06/08 05:40:08;;;;;;;7.72;4.55;;;15.50;99.90;;;;;;5034120;28;20505;-74
2022/06/08 05:42:37;;;;;;;6.95;4.85;;;15.50;99.90;;;;;;5051848;28;20459;-74
2022/06/08 05:45:07;;;;;;;6.70;4.97;;;15.50;99.90;;;;;;5035643;28;20045;-74
2022/06/08 05:47:35;;;;;;;7.15;4.90;;;15.50;99.90;;;;;;5035167;28;20057;-74
2022/06/08 05:50:03;;;;;;;8.15;5.60;;;15.50;99.90;;;;;;5035324;28;20131;-74
2022/06/08 05:52:33;;;;;;;9.38;5.40;;;15.60;99.90;;;;;;5050751;28;20049;-74
2022/06/08 05:55:00;;;;;;;9.40;6.13;;;15.60;99.90;;;;;;5034786;28;20053;-74
2022/06/08 05:57:28;;;;;;;;;;;15.60;99.90;;;;;;5035529;28;20053;-74
2022/06/08 05:59:56;;;;;;;8.80;5.18;;;15.60;99.90;;;;;;5033679;28;19921;-74
2022/06/08 06:02:24;;;;;;;10.10;5.93;;;15.60;99.90;;;;;;5035170;28;20368;-74
2022/06/08 06:04:52;;;;;;;9.20;6.53;;;15.60;99.90;;;;;;5034841;28;20049;-74
2022/06/08 06:07:20;;;;;;;9.95;6.53;;;15.50;99.90;;;;;;5033822;28;20057;-74
2022/06/08 06:10:03;;;;;;;11.30;6.65;;;15.60;99.90;;;;;;5035136;28;20060;-74
2022/06/08 06:12:34;;;;;;;10.68;6.65;;;15.60;99.90;;;;;;5033938;28;20060;-74
2022/06/08 06:15:07;;;;;;;8.15;5.80;;;15.70;99.90;;;;;;5034942;28;20053;-74
2022/06/08 06:17:35;;;;;;;8.70;5.03;;;15.70;99.90;;;;;;5051295;28;20052;-74
2022/06/08 06:20:06;;;;;;;8.57;4.72;;;15.80;99.90;;;;;;5033503;28;20052;-74
2022/06/08 06:22:52;;;;;;;9.65;4.47;;;15.90;99.90;;;;;;5035616;28;20494;-74
2022/06/08 06:25:45;;;;;;;5.22;3.28;;;16.00;99.90;;;;;;5034060;28;20361;-74
2022/06/08 06:28:31;;;;;;;4.38;2.90;;;16.10;99.90;;;;;;5035319;28;20053;-74
2022/06/08 06:31:42;;;;;;;3.75;2.45;;;16.20;99.90;;;;;;5024739;28;20057;-74
2022/06/08 06:34:18;;;;;;;;;;;16.20;99.90;;;;;;5033586;28;20041;-74
2022/06/08 06:36:46;;;;;;;2.78;1.92;;;16.20;99.90;;;;;;5034723;28;19921;-74
2022/06/08 06:39:14;;;;;;;2.72;1.90;;;16.30;99.90;;;;;;5033454;28;20363;-74
2022/06/08 06:41:44;;;;;;;4.97;1.80;;;16.30;99.90;;;;;;5033935;28;20049;-74
2022/06/08 06:44:15;;;;;;;6.18;2.22;;;16.30;99.90;;;;;;5033975;28;20057;-74
2022/06/08 06:47:05;;;;;;;4.30;2.00;;;16.40;99.90;;;;;;5015909;28;20479;-73
2022/06/08 06:49:43;;;;;;;7.68;2.10;;;16.40;99.90;;;;;;5034070;28;20490;-73
2022/06/08 06:52:13;;;;;;;4.15;1.92;;;16.40;99.90;;;;;;5033881;28;20056;-75
2022/06/08 06:54:42;;;;;;;4.00;1.85;;;16.40;99.90;;;;;;5049126;28;20057;-73
2022/06/08 06:57:09;;;;;;;4.93;2.08;;;16.50;99.90;;;;;;5017382;28;20057;-73
2022/06/08 06:59:38;;;;;;;;;;;16.60;99.90;;;;;;5032957;28;20357;-74
2022/06/08 07:02:15;;;;;;;4.82;1.63;;;16.70;99.90;;;;;;5033677;28;19921;-73
2022/06/08 07:04:44;;;;;;;5.65;1.75;;;16.70;99.90;;;;;;5050336;28;20052;-73
2022/06/08 07:07:13;;;;;;;6.80;1.88;;;16.90;99.90;;;;;;5031773;28;20057;-73
2022/06/08 07:09:42;;;;;;;5.25;1.67;;;16.90;99.90;;;;;;5033661;28;20045;-72
2022/06/08 07:12:12;;;;;;;4.78;1.60;;;17.00;99.90;;;;;;5033918;28;20052;-73
2022/06/08 07:14:47;;;;;;;5.57;1.70;;;17.00;99.90;;;;;;5033913;28;20104;-73
2022/06/08 07:17:18;;;;;;;7.20;1.50;;;17.00;99.90;;;;;;5033661;28;20042;-73
2022/06/08 07:19:47;;;;;;;7.03;1.95;;;17.00;99.90;;;;;;5016483;28;20057;-73
2022/06/08 07:22:15;;;;;;;;;;;17.00;99.90;;;;;;5047688;28;20033;-73
2022/06/08 07:24:42;;;;;;;8.77;2.00;;;16.90;99.90;;;;;;5053965;28;19921;-73
2022/06/08 07:27:10;;;;;;;4.90;1.73;;;16.90;99.90;;;;;;5053356;28;20491;-73
2022/06/08 07:29:38;;;;;;;9.68;2.58;;;16.90;99.90;;;;;;5037301;28;20052;-73
2022/06/08 07:32:06;;;;;;;9.73;2.28;;;17.00;99.90;;;;;;5054074;28;20498;-73
2022/06/08 07:34:33;;;;;;;8.43;2.00;;;17.10;99.90;;;;;;5049800;28;20068;-73
2022/06/08 07:37:01;;;;;;;8.55;2.03;;;17.10;99.90;;;;;;5050861;28;20041;-73
2022/06/08 07:39:29;;;;;;;7.80;1.80;;;17.10;99.90;;;;;;5053222;28;20049;-73
2022/06/08 07:41:57;;;;;;;9.15;1.92;;;17.10;99.90;;;;;;5053139;28;20355;-73
2022/06/08 07:44:24;;;;;;;9.13;1.98;;;17.10;99.90;;;;;;5054331;28;20463;-73
2022/06/08 07:46:52;;;;;;;9.27;2.03;;;17.00;99.90;;;;;;5053179;28;20068;-72
2022/06/08 07:49:45;;;;;;;7.40;1.83;;;17.00;99.90;;;;;;5053319;28;20045;-72
2022/06/08 07:52:21;;;;;;;11.68;2.45;;;17.00;99.90;;;;;;5036980;28;20061;-73
2022/06/08 07:54:50;;;;;;;9.27;2.08;;;17.10;99.90;;;;;;5054292;28;20380;-73
2022/06/08 07:57:25;;;;;;;9.68;1.77;;;17.20;99.90;;;;;;5054067;28;20040;-72
2022/06/08 07:59:54;;;;;;;9.85;2.10;;;17.30;99.90;;;;;;5052329;28;20060;-73
2022/06/08 08:02:22;;;;;;;7.00;1.85;;;17.30;99.90;;;;;;5054274;28;20048;-73
2022/06/08 08:04:50;;;;;;;15.25;2.35;;;17.40;99.90;;;;;;5053696;28;20056;-72
2022/06/08 08:07:20;;;;;;;11.32;2.00;;;17.40;99.90;;;;;;5036450;28;20049;-73
2022/06/08 08:09:48;;;;;;;14.93;2.10;;;17.60;99.90;;;;;;5054067;28;20052;-72
2022/06/08 08:12:16;;;;;;;9.10;2.30;;;17.80;99.90;;;;;;5054317;28;20060;-72
2022/06/08 08:14:44;;;;;;;8.80;2.30;;;18.00;99.90;;;;;;5052436;28;20045;-73
2022/06/08 08:17:11;;;;;;;8.75;1.90;;;18.10;99.90;;;;;;5054038;28;20371;-73
2022/06/08 08:19:39;;;;;;;10.38;2.15;;;18.20;99.90;;;;;;5055532;28;20352;-73
2022/06/08 08:22:09;;;;;;;11.65;2.17;;;18.20;99.90;;;;;;5057839;28;20053;-72
2022/06/08 08:24:36;;;;;;;8.77;2.00;;;18.20;99.90;;;;;;5057744;28;20041;-73
2022/06/08 08:27:04;;;;;;;12.43;2.42;;;18.20;99.90;;;;;;5057397;28;20056;-72
2022/06/08 08:29:32;;;;;;;11.73;2.13;;;18.30;99.90;;;;;;5057581;28;20360;-72
2022/06/08 08:32:01;;;;;;;12.55;2.33;;;18.40;99.90;;;;;;5057862;28;20041;-73
2022/06/08 08:34:29;;;;;;;12.20;2.67;;;18.50;99.90;;;;;;5056409;28;20052;-72
2022/06/08 08:36:57;;;;;;;9.07;2.00;;;18.60;99.90;;;;;;5057186;28;20440;-73
2022/06/08 08:39:24;;;;;;;10.93;2.20;;;18.70;99.90;;;;;;5039538;28;20060;-72
2022/06/08 08:45:04;;;;;;;9.90;2.08;;;18.60;99.90;;;;;;5057426;28;20333;-72
2022/06/08 08:47:40;;;;;;;9.40;2.00;;;18.60;99.90;;;;;;5045504;28;20056;-72
2022/06/08 08:50:25;;;;;;;12.57;2.28;;;18.80;99.90;;;;;;5057241;28;20040;-72
2022/06/08 08:53:24;;;;;;;9.70;2.00;;;18.80;99.90;;;;;;5056153;28;20486;-72
2022/06/08 08:56:01;;;;;;;8.70;2.00;;;18.80;99.90;;;;;;5057115;28;20049;-72
2022/06/08 08:58:36;;;;;;;12.27;2.30;;;18.90;99.90;;;;;;5057309;28;20049;-73
2022/06/08 09:01:20;;;;;;;8.85;1.90;;;19.00;99.90;;;;;;5038894;28;20605;-73
2022/06/08 09:03:55;;;;;;;11.68;2.35;;;19.10;99.90;;;;;;5036880;28;20041;-73
2022/06/08 09:06:33;;;;;;;7.82;1.90;;;19.30;99.90;;;;;;5035567;28;20363;-73
2022/06/08 09:09:09;;;;;;;7.47;1.77;;;19.40;99.90;;;;;;5036838;28;20467;-73
2022/06/08 09:11:43;;;;;;;7.53;1.70;;;19.30;99.90;;;;;;5036706;28;20045;-72
2022/06/08 09:15:00;;;;;;;5.20;1.20;;;19.20;99.90;;;;;;5035747;28;20490;-73
2022/06/08 09:17:35;;;;;;;8.30;1.60;;;19.00;99.90;;;;;;5036939;28;20056;-73
2022/06/08 09:20:22;;;;;;;7.55;1.40;;;19.10;99.90;;;;;;5035669;28;20045;-73
2022/06/08 09:22:53;;;;;;;9.10;1.60;;;19.20;99.90;;;;;;5036593;28;20463;-73
2022/06/08 09:25:36;;;;;;;5.68;1.58;;;19.30;99.90;;;;;;5037070;28;20041;-73
2022/06/08 09:28:24;;;;;;;7.45;1.15;;;19.30;99.90;;;;;;5018188;28;20041;-73
2022/06/08 09:30:53;;;;;;;8.75;1.58;;;19.40;99.90;;;;;;5036040;28;20048;-72
2022/06/08 09:33:30;;;;;;;5.80;1.10;;;19.40;99.90;;;;;;5035926;28;20052;-72
2022/06/08 09:36:07;;;;;;;7.15;1.30;;;19.40;99.90;;;;;;5019378;28;20049;-72
2022/06/08 09:38:40;;;;;;;6.20;1.35;;;19.40;99.90;;;;;;5036526;28;20049;-73
2022/06/08 09:41:34;;;;;;;7.63;1.30;;;19.40;99.90;;;;;;5017995;28;20486;-72
2022/06/08 09:44:17;;;;;;;8.93;1.50;;;19.50;99.90;;;;;;5036194;28;20045;-73
2022/06/08 09:53:20;;;;;;;6.10;1.30;;;19.80;99.90;;;;;;5018122;28;20391;-72
2022/06/08 09:56:03;;;;;;;6.38;1.10;;;19.90;99.90;;;;;;5036625;28;20456;-73
2022/06/08 09:58:43;;;;;;;6.30;0.82;;;20.00;99.90;;;;;;5036620;28;20049;-73
2022/06/08 10:01:19;;;;;;;5.30;1.20;;;20.20;99.90;;;;;;5049605;28;20056;-72
2022/06/08 10:04:32;;;;;;;7.78;1.33;;;20.20;99.90;;;;;;5054876;28;20045;-73
2022/06/08 10:07:30;;;;;;;5.53;1.27;;;20.20;99.30;;;;;;5054823;28;20041;-73
2022/06/08 10:10:15;;;;;;;6.85;1.30;;;20.20;99.70;;;;;;5055753;28;20041;-73
2022/06/08 10:12:45;;;;;;;6.78;1.60;;;20.20;99.90;;;;;;5053906;28;20486;-73
2022/06/08 10:15:19;;;;;;;6.63;1.30;;;20.20;99.90;;;;;;5055881;28;20060;-73
2022/06/08 10:18:05;;;;;;;4.85;1.15;;;20.30;99.90;;;;;;5055502;28;20371;-73
2022/06/08 10:20:39;;;;;;;4.85;1.17;;;20.30;99.90;;;;;;5053743;28;20075;-73
2022/06/08 10:23:27;;;;;;;4.85;1.05;;;20.40;99.50;;;;;;5055681;28;20036;-73
2022/06/08 10:26:00;;;;;;;5.47;1.02;;;20.50;99.00;;;;;;5054430;28;20041;-73
2022/06/08 10:28:52;;;;;;;4.95;1.30;;;20.60;99.80;;;;;;5055488;28;20056;-73
2022/06/08 10:31:49;;;;;;;6.53;1.08;;;20.60;99.90;;;;;;5055849;28;20079;-72
2022/06/08 10:34:21;;;;;;;6.10;1.93;;;20.60;98.10;;;;;;5054090;28;20052;-72
2022/06/08 10:36:55;;;;;;;8.48;1.30;;;20.50;99.90;;;;;;5054965;28;20051;-72
2022/06/08 10:39:24;;;;;;;8.45;1.23;;;20.50;99.90;;;;;;5054221;28;20045;-72
2022/06/08 10:42:41;;;;;;;6.32;1.30;;;20.50;99.90;;;;;;5054370;28;20045;-73
2022/06/08 10:45:23;;;;;;;5.50;1.40;;;20.60;97.50;;;;;;5054860;28;20037;-73
2022/06/08 10:47:55;;;;;;;7.15;1.13;;;20.70;99.40;;;;;;5036727;28;20052;-73
2022/06/08 10:50:28;;;;;;;5.72;1.38;;;20.70;99.90;;;;;;5054115;28;20045;-73
2022/06/08 10:54:53;;;;;;;7.43;1.30;;;20.60;99.30;;;;;;5053972;28;20503;-73
2022/06/08 10:55:46;;;;;;;4.00;1.02;;;20.40;99.10;;;;;;5053746;28;20060;-73
2022/06/08 10:58:16;;;;;;;5.53;1.60;;;20.20;99.90;;;;;;5054714;28;20051;-73
2022/06/08 11:01:01;;;;;;;6.68;1.60;;;20.10;99.90;;;;;;5039519;28;20049;-73
2022/06/08 11:03:52;;;;;;;7.43;1.63;;;20.20;99.90;;;;;;5034862;28;20068;-73
2022/06/08 11:06:46;;;;;;;5.93;2.00;;;20.30;99.90;;;;;;5033603;28;20375;-73
2022/06/08 11:09:32;;;;;;;6.25;1.85;;;20.30;99.00;;;;;;5034240;28;20353;-73
2022/06/08 11:12:27;;;;;;;7.18;1.60;;;20.10;99.90;;;;;;5000777;28;20068;-73
2022/06/08 11:15:10;;;;;;;7.50;1.35;;;20.00;99.90;;;;;;4999066;28;20064;-73
2022/06/08 11:18:00;;;;;;;4.53;1.23;;;20.00;99.90;;;;;;5017220;28;20060;-74
2022/06/08 11:20:39;;;;;;;6.78;1.08;;;20.10;98.70;;;;;;5033235;28;20053;-72
2022/06/08 11:23:32;;;;;;;4.80;1.15;;;20.20;97.80;;;;;;5017001;28;20053;-72
2022/06/08 11:26:14;;;;;;;5.75;1.10;;;20.20;99.30;;;;;;5015845;28;20210;-73
2022/06/08 11:28:48;;;;;;;4.90;1.05;;;20.10;98.90;;;;;;5000815;28;20057;-72
2022/06/08 11:31:28;;;;;;;6.45;1.10;;;19.90;99.50;;;;;;5016795;28;20049;-72
2022/06/08 11:34:12;;;;;;;5.15;0.90;;;19.80;99.10;;;;;;5015862;28;20061;-74
2022/06/08 11:37:15;;;;;;;6.13;1.08;;;20.00;99.90;;;;;;5034344;28;20056;-72
2022/06/08 11:39:43;;;;;;;6.53;1.15;;;20.30;99.20;;;;;;5032537;28;20056;-73
2022/06/08 11:42:22;;;;;;;6.57;1.20;;;20.50;99.90;;;;;;5016764;28;20049;-72
2022/06/08 11:45:10;;;;;;;4.63;0.75;;;20.70;99.90;;;;;;5000518;28;20472;-72
2022/06/08 11:48:00;;;;;;;5.13;0.85;;;21.00;97.90;;;;;;5033148;28;20411;-72
2022/06/08 11:50:39;;;;;;;4.57;1.17;;;21.20;97.00;;;;;;5034014;28;20046;-72
2022/06/08 11:53:17;;;;;;;5.85;1.20;;;21.40;98.40;;;;;;5016515;28;20045;-73
2022/06/08 11:55:58;;;;;;;;;;;21.50;97.80;;;;;;5021097;28;20041;-73
2022/06/08 11:58:28;;;;;;;7.05;1.00;;;21.60;96.60;;;;;;5037898;28;19996;-73
2022/06/08 12:01:03;;;;;;;2.72;0.70;;;21.80;98.60;;;;;;5038670;28;20495;-73
2022/06/08 12:03:38;;;;;;;5.75;1.45;;;21.90;96.80;;;;;;5037762;28;20046;-72
2022/06/08 12:06:22;;;;;;;5.25;1.20;;;21.80;96.70;;;;;;5036767;28;20045;-73
2022/06/08 12:08:56;;;;;;;5.20;0.93;;;21.70;94.10;;;;;;5037310;28;20046;-72
2022/06/08 12:11:28;;;;;;;4.03;0.90;;;21.60;96.90;;;;;;5037983;28;20046;-73
2022/06/08 12:14:16;;;;;;;2.55;0.90;;;21.50;95.30;;;;;;5036486;28;20050;-72
2022/06/08 12:17:02;;;;;;;3.08;0.85;;;21.50;96.20;;;;;;5037616;28;20064;-72
2022/06/08 12:19:53;;;;;;;5.85;0.88;;;21.50;95.40;;;;;;5036505;28;20380;-73
2022/06/08 12:22:29;;;;;;;6.25;0.95;;;21.60;91.90;;;;;;5019932;28;20045;-72
2022/06/08 12:25:09;;;;;;;3.88;1.05;;;21.70;95.70;;;;;;5037663;28;20345;-73
2022/06/08 12:27:43;;;;;;;5.38;1.02;;;21.60;94.20;;;;;;5036336;28;20072;-73
2022/06/08 12:30:21;;;;;;;4.35;1.30;;;21.50;95.60;;;;;;5037419;28;20376;-73
2022/06/08 12:33:18;;;;;;;7.05;1.27;;;21.50;95.80;;;;;;5029950;28;20049;-72
2022/06/08 12:35:51;;;;;;;6.63;1.30;;;21.40;93.60;;;;;;5032011;28;20476;-74
2022/06/08 12:38:28;;;;;;;5.82;1.30;;;21.30;93.60;;;;;;5037678;28;20053;-73
2022/06/08 12:41:02;;;;;;;7.50;1.40;;;21.30;95.90;;;;;;5018360;28;20057;-76
2022/06/08 12:43:49;;;;;;;5.60;1.50;;;21.20;95.20;;;;;;5036932;28;20046;-73
2022/06/08 12:46:26;;;;;;;;;;;21.20;94.90;;;;;;5019230;28;20053;-77
2022/06/08 12:48:54;;;;;;;5.03;0.93;;;21.30;95.30;;;;;;5019574;28;20358;-76
2022/06/08 12:51:29;;;;;;;5.50;1.20;;;21.40;96.30;;;;;;5027218;28;20360;-72
2022/06/08 12:53:57;;;;;;;7.97;1.20;;;21.60;95.60;;;;;;5015890;28;20053;-73
2022/06/08 12:56:26;;;;;;;6.97;1.60;;;22.10;94.90;;;;;;5016888;28;20053;-74
2022/06/08 12:58:55;;;;;;;5.85;1.15;;;22.10;95.40;;;;;;4999699;28;20382;-73
2022/06/08 13:01:27;;;;;;;4.72;1.10;;;22.20;94.00;;;;;;5015575;28;20050;-74
2022/06/08 13:03:55;;;;;;;6.50;1.17;;;22.20;94.00;;;;;;4999519;28;20050;-72
2022/06/08 13:06:24;;;;;;;;;;;22.00;93.90;;;;;;5022212;28;20368;-74
2022/06/08 13:08:52;;;;;;;7.75;1.88;;;21.80;93.30;;;;;;4999638;28;19944;-75
2022/06/08 13:11:23;;;;;;;3.85;1.20;;;21.90;95.20;;;;;;5016595;28;20375;-75
2022/06/08 13:13:54;;;;;;;3.40;1.00;;;21.90;94.40;;;;;;5033413;28;20057;-73
2022/06/08 13:16:28;;;;;;;5.07;1.20;;;22.10;94.90;;;;;;5002900;28;20128;-73
2022/06/08 13:18:57;;;;;;;6.20;1.15;;;22.20;94.50;;;;;;5019266;28;20052;-73
2022/06/08 13:21:25;;;;;;;6.57;1.35;;;22.30;94.30;;;;;;5035560;28;20065;-76
2022/06/08 13:23:53;;;;;;;4.95;1.00;;;22.40;94.20;;;;;;5036283;28;20049;-76
2022/06/08 13:26:26;;;;;;;4.47;1.20;;;23.20;93.60;;;;;;5034996;28;20042;-74
2022/06/08 13:28:56;;;;;;;6.88;1.40;;;24.20;91.70;;;;;;5018689;28;20041;-73
2022/06/08 13:31:24;;;;;;;8.90;1.60;;;25.50;91.10;;;;;;5016885;28;20056;-74
2022/06/08 13:34:04;;;;;;;3.90;1.50;;;26.70;90.60;;;;;;5015477;28;20365;-73
2022/06/08 13:36:51;;;;;;;5.07;1.42;;;27.80;89.10;;;;;;5012460;28;20053;-74
2022/06/08 13:39:22;;;;;;;4.80;1.40;;;28.20;85.00;;;;;;5017648;28;20060;-74